createdAt,value
2022-11-22T00:01:06.657Z,5.2
2022-11-22T00:03:33.216Z,5.2
2022-11-22T00:05:58.481Z,5.2
2022-11-22T00:08:25.071Z,5.2
2022-11-22T00:10:51.776Z,5.2
2022-11-22T00:15:45.132Z,5.3
2022-11-22T00:18:11.891Z,5.3
2022-11-22T00:20:37.135Z,5.3
2022-11-22T00:23:03.810Z,5.3
2022-11-22T00:25:30.398Z,5.3
2022-11-22T00:30:23.758Z,5.3
2022-11-22T00:32:50.452Z,5.3
2022-11-22T00:35:17.191Z,5.3
2022-11-22T00:37:43.848Z,5.3
2022-11-22T00:40:10.674Z,5.3
2022-11-22T00:42:37.232Z,5.3
2022-11-22T00:45:03.896Z,5.3
2022-11-22T00:47:30.624Z,5.3
2022-11-22T00:49:57.408Z,5.3
2022-11-22T00:52:23.956Z,5.3
2022-11-22T00:54:50.618Z,5.3
2022-11-22T00:59:44.068Z,5.3
2022-11-22T01:02:09.320Z,5.4
2022-11-22T01:04:35.886Z,5.4
2022-11-22T01:09:29.414Z,5.4
2022-11-22T01:14:22.780Z,5.5
2022-11-22T01:16:49.385Z,5.5
2022-11-22T01:21:42.804Z,5.5
2022-11-22T01:24:09.362Z,5.5
2022-11-22T01:29:02.788Z,5.6
2022-11-22T01:31:29.422Z,5.6
2022-11-22T01:33:54.647Z,5.6
2022-11-22T01:36:21.328Z,5.6
2022-11-22T01:38:48.024Z,5.6
2022-11-22T01:43:41.494Z,5.6
2022-11-22T01:46:08.133Z,5.6
2022-11-22T01:48:34.768Z,5.6
2022-11-22T01:51:01.434Z,5.6
2022-11-22T01:53:28.134Z,5.6
2022-11-22T01:58:21.504Z,5.6
2022-11-22T02:00:48.173Z,5.6
2022-11-22T02:03:14.975Z,5.6
2022-11-22T02:08:08.228Z,5.6
2022-11-22T02:13:01.657Z,5.6
2022-11-22T02:15:28.308Z,5.6
2022-11-22T02:17:53.619Z,5.6
2022-11-22T02:20:20.332Z,5.7
2022-11-22T02:22:46.958Z,5.7
2022-11-22T02:27:40.258Z,5.7
2022-11-22T02:30:06.939Z,5.7
2022-11-22T02:32:33.741Z,5.7
2022-11-22T02:35:00.299Z,5.7
2022-11-22T02:37:26.985Z,5.7
2022-11-22T02:42:20.367Z,5.8
2022-11-22T02:44:47.075Z,5.7
2022-11-22T02:47:13.724Z,5.8
2022-11-22T02:49:40.477Z,5.8
2022-11-22T02:52:07.139Z,5.8
2022-11-22T02:57:00.472Z,5.8
2022-11-22T02:59:27.223Z,5.8
2022-11-22T03:01:52.366Z,5.8
2022-11-22T03:04:19.153Z,5.8
2022-11-22T03:06:45.779Z,5.8
2022-11-22T03:09:12.439Z,5.8
2022-11-22T03:11:39.238Z,5.8
2022-11-22T03:14:05.863Z,5.8
2022-11-22T03:16:32.557Z,5.7
2022-11-22T03:18:59.215Z,5.7
2022-11-22T03:26:19.263Z,5.5
2022-11-22T03:28:45.969Z,5.4
2022-11-22T03:31:12.596Z,5.4
2022-11-22T03:33:39.304Z,5.4
2022-11-22T03:36:05.960Z,5.3
2022-11-22T03:40:58.003Z,5.2
2022-11-22T03:43:24.661Z,5.1
2022-11-22T03:45:51.319Z,5.1
2022-11-22T03:48:17.924Z,5.1
2022-11-22T03:50:44.663Z,5.2
2022-11-22T03:55:37.984Z,5.3
2022-11-22T03:58:04.682Z,5.4
2022-11-22T04:00:31.357Z,5.4
2022-11-22T04:02:58.119Z,5.4
2022-11-22T04:05:24.758Z,5.4
2022-11-22T04:12:44.871Z,5.4
2022-11-22T04:15:10.025Z,5.5
2022-11-22T04:17:36.705Z,5.4
2022-11-22T04:20:03.497Z,5.5
2022-11-22T04:24:56.810Z,5.6
2022-11-22T04:27:23.511Z,5.7
2022-11-22T04:29:50.233Z,5.8
2022-11-22T04:34:43.485Z,5.8
2022-11-22T04:37:10.164Z,5.7
2022-11-22T04:39:37.008Z,5.7
2022-11-22T04:42:03.560Z,5.6
2022-11-22T04:44:30.243Z,5.7
2022-11-22T04:46:56.925Z,5.8
2022-11-22T04:49:23.709Z,5.8
2022-11-22T04:54:17.056Z,5.6
2022-11-22T04:56:43.639Z,5.6
2022-11-22T04:59:08.893Z,5.6
2022-11-22T05:04:02.289Z,5.6
2022-11-22T05:08:55.638Z,5.4
2022-11-22T05:11:22.443Z,5.3
2022-11-22T05:13:49.062Z,5.1
2022-11-22T05:18:42.412Z,5
2022-11-22T05:23:35.740Z,5.1
2022-11-22T05:26:02.441Z,5
2022-11-22T05:28:29.114Z,5
2022-11-22T05:30:54.417Z,4.9
2022-11-22T05:33:21.069Z,4.8
2022-11-22T05:38:14.418Z,4.7
2022-11-22T05:40:41.110Z,4.6
2022-11-22T05:43:07.859Z,4.5
2022-11-22T05:48:01.147Z,4
2022-11-22T05:52:54.524Z,3.8
2022-11-22T05:55:21.223Z,3.7
2022-11-22T05:57:47.872Z,3.7
2022-11-22T06:00:14.619Z,3.7
2022-11-22T06:02:41.232Z,3.6
2022-11-22T06:07:33.178Z,3.7
2022-11-22T06:09:59.818Z,3.7
2022-11-22T06:12:26.655Z,3.6
2022-11-22T06:14:53.200Z,3.6
2022-11-22T06:17:19.878Z,3.6
2022-11-22T06:22:13.258Z,3.6
2022-11-22T06:24:39.986Z,3.5
2022-11-22T06:27:06.612Z,3.5
2022-11-22T06:29:33.491Z,3.6
2022-11-22T06:31:59.975Z,3.7
2022-11-22T06:36:53.354Z,3.8
2022-11-22T06:39:20.229Z,3.8
2022-11-22T06:44:12.065Z,3.9
2022-11-22T06:46:38.757Z,3.9
2022-11-22T06:49:05.420Z,3.9
2022-11-22T06:51:32.052Z,3.9
2022-11-22T06:53:58.966Z,3.9
2022-11-22T06:56:25.423Z,3.9
2022-11-22T06:58:52.110Z,3.9
2022-11-22T07:01:18.968Z,3.9
2022-11-22T07:03:45.465Z,3.9
2022-11-22T07:08:38.839Z,3.9
2022-11-22T07:11:05.639Z,3.9
2022-11-22T07:13:30.876Z,3.9
2022-11-22T07:15:57.409Z,3.9
2022-11-22T07:18:24.132Z,3.9
2022-11-22T07:20:50.884Z,4
2022-11-22T07:23:17.461Z,4
2022-11-22T07:28:10.800Z,4.1
2022-11-22T07:33:04.202Z,4.2
2022-11-22T07:35:30.867Z,4.2
2022-11-22T07:37:57.550Z,4.2
2022-11-22T07:40:24.344Z,4.3
2022-11-22T07:42:51.064Z,4.2
2022-11-22T07:45:17.693Z,4.2
2022-11-22T07:52:36.388Z,4.3
2022-11-22T07:57:29.638Z,4.3
2022-11-22T07:59:56.328Z,4.4
2022-11-22T08:02:23.089Z,4.4
2022-11-22T08:04:49.799Z,4.5
2022-11-22T08:07:16.412Z,4.6
2022-11-22T08:09:43.002Z,4.7
2022-11-22T08:12:09.678Z,4.8
2022-11-22T08:21:56.538Z,5.1
2022-11-22T08:24:21.817Z,5.1
2022-11-22T08:26:48.558Z,5.2
2022-11-22T08:29:15.041Z,5.2
2022-11-22T08:31:41.690Z,5.3
2022-11-22T08:34:08.576Z,5.3
2022-11-22T08:36:35.166Z,5.4
2022-11-22T08:41:28.476Z,5.4
2022-11-22T08:46:21.834Z,5.5
2022-11-22T08:48:48.588Z,5.5
2022-11-22T08:51:15.324Z,5.6
2022-11-22T08:53:41.903Z,5.7
2022-11-22T08:56:08.693Z,5.8
2022-11-22T08:58:35.372Z,5.9
2022-11-22T09:01:02.090Z,6
2022-11-22T09:05:55.288Z,6.2
2022-11-22T09:10:47.205Z,6.2
2022-11-22T09:13:14.207Z,6.2
2022-11-22T09:15:40.750Z,6.3
2022-11-22T09:18:07.245Z,6.4
2022-11-22T09:20:34.088Z,6.4
2022-11-22T09:23:00.670Z,6.4
2022-11-22T09:25:27.368Z,6.5
2022-11-22T09:27:53.984Z,6.6
2022-11-22T09:30:20.775Z,6.6
2022-11-22T09:35:14.117Z,6.8
2022-11-22T09:37:40.721Z,6.8
2022-11-22T09:40:06.113Z,6.8
2022-11-22T09:42:32.693Z,6.9
2022-11-22T09:44:59.343Z,6.9
2022-11-22T09:47:26.067Z,7
2022-11-22T09:49:52.878Z,7.1
2022-11-22T09:52:19.370Z,7.1
2022-11-22T09:54:46.090Z,7.1
2022-11-22T09:59:39.421Z,7.2
2022-11-22T10:02:06.117Z,7.3
2022-11-22T10:04:32.888Z,7.3
2022-11-22T10:06:59.485Z,7.4
2022-11-22T10:09:26.176Z,7.5
2022-11-22T10:11:52.844Z,7.5
2022-11-22T10:16:46.217Z,7.5
2022-11-22T10:19:12.924Z,7.6
2022-11-22T10:21:38.126Z,7.7
2022-11-22T10:24:04.805Z,7.7
2022-11-22T10:26:31.494Z,7.8
2022-11-22T10:31:24.861Z,7.9
2022-11-22T10:33:51.570Z,8
2022-11-22T10:36:18.268Z,8
2022-11-22T10:38:45.069Z,8.1
2022-11-22T10:41:11.605Z,8.3
2022-11-22T10:43:38.302Z,8.4
2022-11-22T10:48:31.685Z,8.4
2022-11-22T10:50:58.339Z,8.5
2022-11-22T10:53:23.570Z,8.6
2022-11-22T10:55:50.260Z,8.7
2022-11-22T11:03:10.309Z,9
2022-11-22T11:05:36.984Z,9
2022-11-22T11:08:03.680Z,9.1
2022-11-22T11:12:57.062Z,9.2
2022-11-22T11:15:23.875Z,9.2
2022-11-22T11:17:50.589Z,9.3
2022-11-22T11:20:17.100Z,9.3
2022-11-22T11:27:37.153Z,9.2
2022-11-22T11:30:03.833Z,9
2022-11-22T11:32:30.530Z,9.1
2022-11-22T11:34:55.752Z,9.2
2022-11-22T11:37:22.440Z,9.1
2022-11-22T11:39:49.125Z,9.2
2022-11-22T11:42:15.800Z,9.3
2022-11-22T11:44:42.504Z,9.2
2022-11-22T11:47:09.174Z,9.1
2022-11-22T11:49:35.853Z,9.2
2022-11-22T11:52:02.556Z,9.2
2022-11-22T11:54:29.232Z,9.3
2022-11-22T11:56:55.910Z,9.3
2022-11-22T11:59:22.611Z,9.4
2022-11-22T12:01:49.363Z,9.4
2022-11-22T12:04:15.986Z,9.4
2022-11-22T12:06:41.196Z,9.4
2022-11-22T12:09:07.869Z,9.4
2022-11-22T12:11:34.585Z,9.4
2022-11-22T12:14:01.254Z,9.4
2022-11-22T12:16:27.937Z,9.4
2022-11-22T12:18:53.185Z,9.5
2022-11-22T12:21:18.579Z,9.6
2022-11-22T12:26:11.779Z,9.6
2022-11-22T12:28:38.634Z,9.6
2022-11-22T12:31:05.154Z,9.6
2022-11-22T12:33:32.003Z,9.7
2022-11-22T12:35:58.678Z,9.8
2022-11-22T12:38:25.413Z,9.8
2022-11-22T12:40:52.058Z,9.8
2022-11-22T12:43:18.760Z,9.8
2022-11-22T12:45:45.446Z,9.8
2022-11-22T12:48:12.110Z,9.7
2022-11-22T12:50:38.720Z,9.7
2022-11-22T12:53:03.840Z,9.7
2022-11-22T12:55:30.515Z,9.8
2022-11-22T12:57:57.204Z,9.8
2022-11-22T13:00:23.897Z,9.9
2022-11-22T13:02:50.692Z,9.8
2022-11-22T13:05:17.270Z,9.9
2022-11-22T13:07:43.956Z,9.9
2022-11-22T13:10:09.204Z,9.8
2022-11-22T13:12:34.446Z,9.8
2022-11-22T13:15:01.141Z,9.7
2022-11-22T13:17:26.348Z,9.7
2022-11-22T13:19:53.191Z,9.7
2022-11-22T13:22:19.868Z,9.8
2022-11-22T13:24:46.398Z,9.8
2022-11-22T13:27:13.108Z,9.9
2022-11-22T13:29:39.783Z,9.9
2022-11-22T13:32:06.469Z,9.9
2022-11-22T13:36:59.829Z,9.9
2022-11-22T13:39:26.506Z,9.9
2022-11-22T13:41:53.200Z,9.9
2022-11-22T13:44:19.884Z,9.9
2022-11-22T13:46:46.570Z,9.8
2022-11-22T13:49:13.250Z,9.7
2022-11-22T13:51:39.957Z,9.7
2022-11-22T13:54:06.795Z,9.6
2022-11-22T13:56:31.860Z,9.6
2022-11-22T13:58:58.541Z,9.5
2022-11-22T14:01:25.228Z,9.5
2022-11-22T14:03:51.921Z,9.5
2022-11-22T14:06:18.760Z,9.5
2022-11-22T14:08:45.307Z,9.4
2022-11-22T14:11:12.218Z,9.3
2022-11-22T14:13:38.817Z,9.3
2022-11-22T14:18:32.183Z,9.2
2022-11-22T14:20:58.852Z,9.1
2022-11-22T14:23:25.507Z,9.1
2022-11-22T14:25:52.081Z,9.1
2022-11-22T14:28:18.884Z,9.1
2022-11-22T14:33:10.675Z,9
2022-11-22T14:35:37.343Z,9
2022-11-22T14:38:04.046Z,8.9
2022-11-22T14:40:30.725Z,8.9
2022-11-22T14:42:57.409Z,8.9
2022-11-22T14:45:24.106Z,8.8
2022-11-22T14:50:17.464Z,8.8
2022-11-22T14:52:42.887Z,8.8
2022-11-22T14:55:07.929Z,8.7
2022-11-22T14:57:34.608Z,8.7
2022-11-22T15:00:01.297Z,8.6
2022-11-22T15:02:27.988Z,8.6
2022-11-22T15:04:54.677Z,8.6
2022-11-22T15:09:05.675Z,8.5
2022-11-22T15:09:48.158Z,8.5
2022-11-22T15:12:14.904Z,8.4
2022-11-22T15:14:41.463Z,8.4
2022-11-22T15:57:01.036Z,7.7
2022-11-22T15:57:01.351Z,7.9
2022-11-22T15:57:01.693Z,8
2022-11-22T15:57:01.999Z,7.7
2022-11-22T15:57:03.082Z,7.6
2022-11-22T15:58:37.381Z,7.6
2022-11-22T16:01:04.069Z,7.6
2022-11-22T16:03:30.744Z,7.5
2022-11-22T16:05:57.435Z,7.4
2022-11-22T16:08:24.118Z,7.3
2022-11-22T16:10:50.807Z,7.2
2022-11-22T16:13:17.485Z,7.1
2022-11-22T16:15:44.169Z,7.1
2022-11-22T16:18:10.838Z,7.1
2022-11-22T16:20:37.546Z,7
2022-11-22T16:23:04.217Z,6.9
2022-11-22T16:25:30.911Z,7
2022-11-22T16:27:57.591Z,7.1
2022-11-22T16:32:50.968Z,7.2
2022-11-22T16:35:16.172Z,7.2
2022-11-22T16:37:42.863Z,7.2
2022-11-22T16:40:09.550Z,7.2
2022-11-22T16:42:36.259Z,7.2
2022-11-22T16:47:29.603Z,7.1
2022-11-22T16:49:56.344Z,7.1
2022-11-22T16:52:23.056Z,7.1
2022-11-22T16:54:49.663Z,7.1
2022-11-22T16:57:16.336Z,7
2022-11-22T17:02:09.711Z,7
2022-11-22T17:04:35.003Z,7
2022-11-22T17:07:00.205Z,7
2022-11-22T17:09:26.925Z,7.1
2022-11-22T17:11:53.547Z,7.1
2022-11-22T17:14:20.243Z,7.1
2022-11-22T17:16:46.933Z,7.1
2022-11-22T17:19:13.607Z,7.2
2022-11-22T17:21:40.295Z,7.2
2022-11-22T17:24:07.026Z,7.2
2022-11-22T17:26:33.660Z,7.3
2022-11-22T17:29:00.354Z,7.3
2022-11-22T17:31:27.027Z,7.3
2022-11-22T17:33:52.284Z,7.3
2022-11-22T17:38:45.785Z,7.3
2022-11-22T17:43:37.674Z,7.4
2022-11-22T17:46:04.235Z,7.4
2022-11-22T17:48:30.939Z,7.3
2022-11-22T17:50:57.621Z,7.3
2022-11-22T17:53:24.295Z,7.2
2022-11-22T17:55:50.988Z,7.2
2022-11-22T17:58:17.683Z,7.2
2022-11-22T18:00:44.352Z,7.3
2022-11-22T18:03:11.091Z,7.3
2022-11-22T18:05:37.717Z,7.3
2022-11-22T18:08:04.408Z,7.3
2022-11-22T18:10:31.089Z,7.3
2022-11-22T18:12:56.304Z,7.3
2022-11-22T18:15:22.990Z,7.3
2022-11-22T18:17:49.680Z,7.2
2022-11-22T18:20:16.384Z,7.3
2022-11-22T18:22:43.048Z,7.3
2022-11-22T18:25:09.727Z,7.3
2022-11-22T18:30:03.220Z,7.2
2022-11-22T18:34:56.633Z,7.3
2022-11-22T18:37:23.275Z,7.2
2022-11-22T18:39:49.851Z,7.1
2022-11-22T18:42:16.938Z,7.1
2022-11-22T18:44:43.395Z,7
2022-11-22T18:47:09.964Z,6.9
2022-11-22T18:49:35.306Z,6.9
2022-11-22T18:52:01.985Z,6.8
2022-11-22T18:54:28.688Z,6.7
2022-11-22T18:59:22.105Z,6.7
2022-11-22T19:01:47.264Z,6.8
2022-11-22T19:04:12.490Z,6.7
2022-11-22T19:06:39.173Z,6.8
2022-11-22T19:09:05.852Z,6.8
2022-11-22T19:11:32.528Z,6.8
2022-11-22T19:13:59.205Z,6.8
2022-11-22T19:16:25.876Z,6.8
2022-11-22T19:18:52.549Z,6.8
2022-11-22T19:21:19.133Z,6.8
2022-11-22T19:23:45.813Z,6.8
2022-11-22T19:26:12.746Z,6.9
2022-11-22T19:28:39.338Z,6.9
2022-11-22T19:31:06.028Z,6.9
2022-11-22T19:33:31.209Z,6.9
2022-11-22T19:35:56.417Z,6.9
2022-11-22T19:38:23.215Z,6.9
2022-11-22T19:40:49.810Z,6.9
2022-11-22T19:43:16.441Z,6.8
2022-11-22T19:45:43.108Z,6.8
2022-11-22T19:48:09.768Z,6.8
2022-11-22T19:50:36.592Z,6.7
2022-11-22T19:53:03.258Z,6.7
2022-11-22T19:55:29.810Z,6.6
2022-11-22T19:57:56.504Z,6.6
2022-11-22T20:02:49.900Z,6.5
2022-11-22T20:05:16.603Z,6.5
2022-11-22T20:07:41.775Z,6.5
2022-11-22T20:10:08.456Z,6.5
2022-11-22T20:12:35.211Z,6.5
2022-11-22T20:15:01.909Z,6.4
2022-11-22T20:17:28.686Z,6.4
2022-11-22T20:19:55.302Z,6.4
2022-11-22T20:22:22.044Z,6.4
2022-11-22T20:29:41.928Z,6.3
2022-11-22T20:32:07.350Z,6.3
2022-11-22T20:34:32.570Z,6.4
2022-11-22T20:36:59.228Z,6.3
2022-11-22T20:41:52.568Z,6.4
2022-11-22T20:44:19.268Z,6.4
2022-11-22T20:46:46.047Z,6.4
2022-11-22T20:49:12.721Z,6.4
2022-11-22T20:51:39.495Z,6.3
2022-11-22T20:54:06.065Z,6.3
2022-11-22T20:56:32.806Z,6.3
2022-11-22T20:58:59.396Z,6.3
2022-11-22T21:01:25.944Z,6.2
2022-11-22T21:03:52.647Z,6.2
2022-11-22T21:06:17.977Z,6.2
2022-11-22T21:08:44.641Z,6.1
2022-11-22T21:11:11.360Z,6.1
2022-11-22T21:13:38.072Z,6
2022-11-22T21:16:04.747Z,6
2022-11-22T21:18:31.427Z,5.9
2022-11-22T21:20:56.628Z,6
2022-11-22T21:23:23.263Z,5.9
2022-11-22T21:25:49.991Z,5.8
2022-11-22T21:28:16.568Z,5.6
2022-11-22T21:30:41.859Z,5.5
2022-11-22T21:33:08.505Z,5.3
2022-11-22T21:35:33.892Z,5.3
2022-11-22T21:38:00.422Z,5.3
2022-11-22T21:40:27.122Z,5.3
2022-11-22T21:42:53.778Z,5.2
2022-11-22T21:45:20.462Z,5.1
2022-11-22T21:47:47.158Z,5
2022-11-22T21:50:13.903Z,5
2022-11-22T21:52:40.524Z,4.8
2022-11-22T21:55:07.292Z,4.7
2022-11-22T21:57:33.966Z,4.6
2022-11-22T22:00:00.588Z,4.6
2022-11-22T22:02:27.406Z,4.6
2022-11-22T22:04:53.949Z,4.6
2022-11-22T22:07:19.178Z,4.5
2022-11-22T22:09:45.925Z,4.5
2022-11-22T22:12:12.735Z,4.5
2022-11-22T22:14:39.395Z,4.5
2022-11-22T22:17:05.908Z,4.5
2022-11-22T22:19:32.762Z,4.5
2022-11-22T22:21:59.431Z,4.5
2022-11-22T22:24:26.020Z,4.5
2022-11-22T22:26:52.711Z,4.4
2022-11-22T22:29:19.454Z,4.4
2022-11-22T22:31:46.124Z,4.2
2022-11-22T22:34:12.823Z,4
2022-11-22T22:36:39.382Z,3.9
2022-11-22T22:39:06.198Z,3.8
2022-11-22T22:41:31.301Z,3.7
2022-11-22T22:43:57.981Z,3.6
2022-11-22T22:46:24.665Z,3.5
2022-11-22T22:48:51.346Z,3.4
2022-11-22T22:51:18.167Z,3.3
2022-11-22T22:53:44.863Z,3.2
2022-11-22T22:56:11.465Z,3.2
2022-11-22T22:58:38.234Z,3.2
2022-11-22T23:01:04.926Z,3.1
2022-11-22T23:03:31.612Z,3.2
2022-11-22T23:05:58.257Z,3
2022-11-22T23:08:24.952Z,3
2022-11-22T23:10:51.640Z,2.9
2022-11-22T23:13:16.723Z,2.9
2022-11-22T23:15:43.505Z,2.8
2022-11-22T23:18:10.110Z,2.8
2022-11-22T23:23:03.543Z,2.7
2022-11-22T23:25:30.293Z,2.7
2022-11-22T23:27:56.953Z,2.8
2022-11-22T23:30:23.684Z,2.9
2022-11-22T23:32:50.213Z,2.9
2022-11-22T23:37:43.575Z,3.1
2022-11-22T23:40:10.386Z,2.8
2022-11-22T23:42:37.066Z,2.7
2022-11-22T23:45:02.189Z,2.6
2022-11-22T23:47:28.859Z,2.6
2022-11-22T23:49:55.548Z,2.6
2022-11-22T23:52:22.235Z,2.6
2022-11-22T23:54:49.073Z,2.5
2022-11-22T23:57:15.607Z,2.5
2022-11-22T23:59:42.286Z,2.4
